Terminal Aerodrome Forecast
Issued by NWS

Current Version | Previous Version | Graphics & Text | Print | Product List | Glossary Off
Versions: 1 2 3 4 5 6 7 8 9 10 11 12 13 14 15 16 17 18 19 20 21 22 23 24 25 26 27 28

000
FTUS41 KRLX 221700
TAFCKB
TAF
KCKB 221724Z 2218/2318 23004KT P6SM BKN040
     FM230200 VRB03KT P6SM FEW050
     FM231600 23007KT P6SM SCT040
     FM231700 24007KT P6SM VCTS SCT040CB=

USA.gov is the U.S. government's official web portal to all federal, state and local government web resources and services.